sensor_id;sensor_type;location;lat;lon;timestamp;P1;durP1;ratioP1;P2;durP2;ratioP2
31348;SDS011;17976;48.480;11.946;2022-11-20T12:22:07;3.15;;;1.90;;
31348;SDS011;17976;48.480;11.946;2022-11-20T12:30:00;3.03;;;1.42;;
31348;SDS011;17976;48.480;11.946;2022-11-20T12:40:02;2.95;;;1.17;;
31348;SDS011;17976;48.480;11.946;2022-11-20T12:42:46;1.92;;;1.30;;
31348;SDS011;17976;48.480;11.946;2022-11-20T12:45:37;2.17;;;1.63;;
31348;SDS011;17976;48.480;11.946;2022-11-20T12:48:24;3.58;;;2.20;;
31348;SDS011;17976;48.480;11.946;2022-11-20T12:51:00;6.20;;;3.15;;
31348;SDS011;17976;48.480;11.946;2022-11-20T12:56:11;4.63;;;2.10;;
31348;SDS011;17976;48.480;11.946;2022-11-20T13:04:47;1.88;;;1.60;;
31348;SDS011;17976;48.480;11.946;2022-11-20T13:06:54;2.08;;;1.40;;
31348;SDS011;17976;48.480;11.946;2022-11-20T13:09:20;2.70;;;1.25;;
31348;SDS011;17976;48.480;11.946;2022-11-20T13:11:50;2.50;;;1.10;;
31348;SDS011;17976;48.480;11.946;2022-11-20T13:14:24;2.67;;;1.48;;
31348;SDS011;17976;48.480;11.946;2022-11-20T13:16:58;1.63;;;1.23;;
31348;SDS011;17976;48.480;11.946;2022-11-20T13:19:26;1.20;;;1.10;;
31348;SDS011;17976;48.480;11.946;2022-11-20T13:21:53;1.67;;;0.95;;
31348;SDS011;17976;48.480;11.946;2022-11-20T13:26:58;1.92;;;1.60;;
31348;SDS011;17976;48.480;11.946;2022-11-20T13:29:25;3.47;;;1.50;;
31348;SDS011;17976;48.480;11.946;2022-11-20T13:32:00;2.72;;;1.40;;
31348;SDS011;17976;48.480;11.946;2022-11-20T13:34:27;2.58;;;1.45;;
31348;SDS011;17976;48.480;11.946;2022-11-20T13:36:57;2.70;;;1.50;;
31348;SDS011;17976;48.480;11.946;2022-11-20T13:41:58;11.80;;;5.63;;
31348;SDS011;17976;48.480;11.946;2022-11-20T13:46:50;2.08;;;1.35;;
31348;SDS011;17976;48.480;11.946;2022-11-20T13:49:18;1.70;;;1.00;;
31348;SDS011;17976;48.480;11.946;2022-11-20T13:51:47;2.78;;;1.58;;
31348;SDS011;17976;48.480;11.946;2022-11-20T13:56:51;2.30;;;1.45;;
31348;SDS011;17976;48.480;11.946;2022-11-20T13:59:24;2.95;;;1.50;;
31348;SDS011;17976;48.480;11.946;2022-11-20T14:01:52;2.05;;;1.00;;
31348;SDS011;17976;48.480;11.946;2022-11-20T14:04:29;3.60;;;1.60;;
31348;SDS011;17976;48.480;11.946;2022-11-20T14:06:56;2.33;;;1.65;;
31348;SDS011;17976;48.480;11.946;2022-11-20T14:09:26;2.83;;;1.83;;
31348;SDS011;17976;48.480;11.946;2022-11-20T14:11:52;2.70;;;1.70;;
31348;SDS011;17976;48.480;11.946;2022-11-20T14:14:20;3.35;;;1.70;;
31348;SDS011;17976;48.480;11.946;2022-11-20T14:16:47;2.38;;;1.75;;
31348;SDS011;17976;48.480;11.946;2022-11-20T14:21:45;3.95;;;1.90;;
31348;SDS011;17976;48.480;11.946;2022-11-20T14:24:12;2.03;;;1.27;;
31348;SDS011;17976;48.480;11.946;2022-11-20T14:26:44;4.53;;;1.95;;
31348;SDS011;17976;48.480;11.946;2022-11-20T14:29:14;2.90;;;1.65;;
31348;SDS011;17976;48.480;11.946;2022-11-20T14:31:41;3.25;;;1.90;;
31348;SDS011;17976;48.480;11.946;2022-11-20T14:34:24;4.10;;;2.42;;
31348;SDS011;17976;48.480;11.946;2022-11-20T14:36:56;4.38;;;2.30;;
31348;SDS011;17976;48.480;11.946;2022-11-20T14:39:25;4.10;;;2.17;;
31348;SDS011;17976;48.480;11.946;2022-11-20T14:41:54;3.10;;;1.80;;
31348;SDS011;17976;48.480;11.946;2022-11-20T14:44:21;2.45;;;1.95;;
31348;SDS011;17976;48.480;11.946;2022-11-20T14:46:50;8.27;;;3.17;;
31348;SDS011;17976;48.480;11.946;2022-11-20T14:49:16;5.95;;;1.92;;
31348;SDS011;17976;48.480;11.946;2022-11-20T14:51:42;3.97;;;2.30;;
31348;SDS011;17976;48.480;11.946;2022-11-20T14:54:10;3.75;;;1.83;;
31348;SDS011;17976;48.480;11.946;2022-11-20T14:56:36;4.30;;;2.40;;
31348;SDS011;17976;48.480;11.946;2022-11-20T14:59:03;6.32;;;2.03;;
31348;SDS011;17976;48.480;11.946;2022-11-20T15:01:30;2.88;;;1.90;;
31348;SDS011;17976;48.480;11.946;2022-11-20T15:04:14;2.58;;;2.08;;
31348;SDS011;17976;48.480;11.946;2022-11-20T15:06:48;4.38;;;2.15;;
31348;SDS011;17976;48.480;11.946;2022-11-20T15:09:15;2.50;;;1.50;;
31348;SDS011;17976;48.480;11.946;2022-11-20T15:11:50;2.85;;;1.83;;
31348;SDS011;17976;48.480;11.946;2022-11-20T15:14:17;5.93;;;1.63;;
31348;SDS011;17976;48.480;11.946;2022-11-20T15:16:43;2.47;;;2.10;;
31348;SDS011;17976;48.480;11.946;2022-11-20T15:19:14;6.18;;;1.90;;
31348;SDS011;17976;48.480;11.946;2022-11-20T15:21:42;4.70;;;1.90;;
31348;SDS011;17976;48.480;11.946;2022-11-20T15:24:08;3.65;;;1.92;;
31348;SDS011;17976;48.480;11.946;2022-11-20T15:26:35;2.60;;;2.08;;
31348;SDS011;17976;48.480;11.946;2022-11-20T15:29:02;4.13;;;2.15;;
31348;SDS011;17976;48.480;11.946;2022-11-20T15:31:28;8.35;;;1.98;;
31348;SDS011;17976;48.480;11.946;2022-11-20T15:33:54;3.30;;;1.65;;
31348;SDS011;17976;48.480;11.946;2022-11-20T15:36:20;3.65;;;2.20;;
31348;SDS011;17976;48.480;11.946;2022-11-20T15:38:45;3.58;;;2.25;;
31348;SDS011;17976;48.480;11.946;2022-11-20T15:41:12;4.15;;;2.42;;
31348;SDS011;17976;48.480;11.946;2022-11-20T15:43:38;4.43;;;2.42;;
31348;SDS011;17976;48.480;11.946;2022-11-20T15:46:13;5.32;;;3.35;;
31348;SDS011;17976;48.480;11.946;2022-11-20T15:48:48;4.47;;;2.55;;
31348;SDS011;17976;48.480;11.946;2022-11-20T15:53:51;7.97;;;2.42;;
31348;SDS011;17976;48.480;11.946;2022-11-20T15:56:17;3.28;;;2.15;;
31348;SDS011;17976;48.480;11.946;2022-11-20T15:58:43;5.43;;;3.10;;
31348;SDS011;17976;48.480;11.946;2022-11-20T16:01:10;7.93;;;3.78;;
31348;SDS011;17976;48.480;11.946;2022-11-20T16:03:36;5.25;;;3.00;;
31348;SDS011;17976;48.480;11.946;2022-11-20T16:06:02;3.03;;;2.28;;
31348;SDS011;17976;48.480;11.946;2022-11-20T16:08:28;3.58;;;2.20;;
31348;SDS011;17976;48.480;11.946;2022-11-20T16:10:54;2.92;;;2.15;;
31348;SDS011;17976;48.480;11.946;2022-11-20T16:13:20;3.95;;;2.08;;
31348;SDS011;17976;48.480;11.946;2022-11-20T16:16:10;4.22;;;2.50;;
31348;SDS011;17976;48.480;11.946;2022-11-20T16:18:37;5.63;;;2.00;;
31348;SDS011;17976;48.480;11.946;2022-11-20T16:21:03;2.17;;;1.73;;
31348;SDS011;17976;48.480;11.946;2022-11-20T16:23:30;2.97;;;1.88;;
31348;SDS011;17976;48.480;11.946;2022-11-20T16:25:58;2.80;;;2.13;;
31348;SDS011;17976;48.480;11.946;2022-11-20T16:28:24;16.60;;;6.45;;
31348;SDS011;17976;48.480;11.946;2022-11-20T16:30:49;3.58;;;2.25;;
31348;SDS011;17976;48.480;11.946;2022-11-20T16:33:16;7.35;;;2.20;;
31348;SDS011;17976;48.480;11.946;2022-11-20T16:35:42;4.20;;;2.50;;
31348;SDS011;17976;48.480;11.946;2022-11-20T16:38:08;4.22;;;2.65;;
31348;SDS011;17976;48.480;11.946;2022-11-20T16:40:34;4.43;;;2.85;;
31348;SDS011;17976;48.480;11.946;2022-11-20T16:43:08;6.28;;;2.83;;
31348;SDS011;17976;48.480;11.946;2022-11-20T16:45:34;5.38;;;2.92;;
31348;SDS011;17976;48.480;11.946;2022-11-20T16:48:00;5.85;;;3.25;;
31348;SDS011;17976;48.480;11.946;2022-11-20T16:50:26;8.23;;;4.28;;
31348;SDS011;17976;48.480;11.946;2022-11-20T16:52:52;11.98;;;6.50;;
31348;SDS011;17976;48.480;11.946;2022-11-20T16:55:18;14.13;;;7.60;;
31348;SDS011;17976;48.480;11.946;2022-11-20T16:57:44;15.77;;;7.38;;
31348;SDS011;17976;48.480;11.946;2022-11-20T17:00:10;9.20;;;4.85;;
31348;SDS011;17976;48.480;11.946;2022-11-20T17:02:36;10.27;;;5.00;;
31348;SDS011;17976;48.480;11.946;2022-11-20T17:05:02;10.00;;;4.88;;
31348;SDS011;17976;48.480;11.946;2022-11-20T17:07:28;4.40;;;2.67;;
31348;SDS011;17976;48.480;11.946;2022-11-20T17:09:54;3.83;;;2.60;;
31348;SDS011;17976;48.480;11.946;2022-11-20T17:12:20;4.00;;;2.60;;
31348;SDS011;17976;48.480;11.946;2022-11-20T17:14:46;7.63;;;3.58;;
31348;SDS011;17976;48.480;11.946;2022-11-20T17:17:12;5.00;;;3.40;;
31348;SDS011;17976;48.480;11.946;2022-11-20T17:19:38;10.32;;;5.80;;
31348;SDS011;17976;48.480;11.946;2022-11-20T17:22:04;8.05;;;4.90;;
31348;SDS011;17976;48.480;11.946;2022-11-20T17:24:30;9.95;;;5.05;;
31348;SDS011;17976;48.480;11.946;2022-11-20T17:26:56;11.98;;;8.30;;
31348;SDS011;17976;48.480;11.946;2022-11-20T17:29:22;10.55;;;5.65;;
31348;SDS011;17976;48.480;11.946;2022-11-20T17:31:48;9.63;;;5.88;;
31348;SDS011;17976;48.480;11.946;2022-11-20T17:34:15;13.77;;;7.85;;
31348;SDS011;17976;48.480;11.946;2022-11-20T17:36:41;17.70;;;8.43;;
31348;SDS011;17976;48.480;11.946;2022-11-20T17:39:09;14.20;;;7.95;;
31348;SDS011;17976;48.480;11.946;2022-11-20T17:41:36;14.32;;;9.00;;
31348;SDS011;17976;48.480;11.946;2022-11-20T17:44:02;12.23;;;6.75;;
31348;SDS011;17976;48.480;11.946;2022-11-20T17:46:29;6.68;;;3.20;;
31348;SDS011;17976;48.480;11.946;2022-11-20T17:48:57;15.05;;;7.13;;
31348;SDS011;17976;48.480;11.946;2022-11-20T17:51:28;8.80;;;4.25;;
31348;SDS011;17976;48.480;11.946;2022-11-20T17:53:55;5.15;;;3.47;;
31348;SDS011;17976;48.480;11.946;2022-11-20T17:56:21;10.27;;;4.88;;
31348;SDS011;17976;48.480;11.946;2022-11-20T17:59:07;12.57;;;6.68;;
31348;SDS011;17976;48.480;11.946;2022-11-20T18:01:33;10.90;;;5.68;;
31348;SDS011;17976;48.480;11.946;2022-11-20T18:03:59;12.00;;;8.80;;
31348;SDS011;17976;48.480;11.946;2022-11-20T18:06:26;11.35;;;6.35;;
31348;SDS011;17976;48.480;11.946;2022-11-20T18:08:52;13.27;;;6.80;;
31348;SDS011;17976;48.480;11.946;2022-11-20T18:11:22;14.50;;;7.18;;
31348;SDS011;17976;48.480;11.946;2022-11-20T18:13:49;17.55;;;9.20;;
31348;SDS011;17976;48.480;11.946;2022-11-20T18:16:35;10.98;;;7.03;;
31348;SDS011;17976;48.480;11.946;2022-11-20T18:19:02;10.50;;;6.60;;
31348;SDS011;17976;48.480;11.946;2022-11-20T18:21:28;9.70;;;3.95;;
31348;SDS011;17976;48.480;11.946;2022-11-20T18:23:55;11.13;;;5.15;;
31348;SDS011;17976;48.480;11.946;2022-11-20T18:26:22;7.55;;;5.00;;
31348;SDS011;17976;48.480;11.946;2022-11-20T18:28:48;9.05;;;5.72;;
31348;SDS011;17976;48.480;11.946;2022-11-20T18:31:14;12.77;;;6.13;;
31348;SDS011;17976;48.480;11.946;2022-11-20T18:33:40;10.15;;;4.68;;
31348;SDS011;17976;48.480;11.946;2022-11-20T18:38:39;7.22;;;3.78;;
31348;SDS011;17976;48.480;11.946;2022-11-20T18:41:05;6.43;;;3.63;;
31348;SDS011;17976;48.480;11.946;2022-11-20T18:43:32;6.80;;;3.70;;
31348;SDS011;17976;48.480;11.946;2022-11-20T18:46:16;6.60;;;3.75;;
31348;SDS011;17976;48.480;11.946;2022-11-20T18:48:43;8.60;;;4.82;;
31348;SDS011;17976;48.480;11.946;2022-11-20T18:51:09;6.63;;;4.05;;
31348;SDS011;17976;48.480;11.946;2022-11-20T18:53:38;6.82;;;4.10;;
31348;SDS011;17976;48.480;11.946;2022-11-20T18:56:04;8.05;;;4.70;;
31348;SDS011;17976;48.480;11.946;2022-11-20T18:58:31;5.25;;;3.45;;
31348;SDS011;17976;48.480;11.946;2022-11-20T19:01:06;7.80;;;4.13;;
31348;SDS011;17976;48.480;11.946;2022-11-20T19:03:33;5.80;;;3.60;;
31348;SDS011;17976;48.480;11.946;2022-11-20T19:05:59;3.97;;;3.10;;
31348;SDS011;17976;48.480;11.946;2022-11-20T19:08:25;6.95;;;3.85;;
31348;SDS011;17976;48.480;11.946;2022-11-20T19:10:51;6.10;;;3.72;;
31348;SDS011;17976;48.480;11.946;2022-11-20T19:13:17;6.75;;;3.90;;
31348;SDS011;17976;48.480;11.946;2022-11-20T19:15:43;6.03;;;3.80;;
31348;SDS011;17976;48.480;11.946;2022-11-20T19:18:09;7.10;;;3.95;;
31348;SDS011;17976;48.480;11.946;2022-11-20T19:20:35;8.68;;;4.00;;
31348;SDS011;17976;48.480;11.946;2022-11-20T19:23:00;4.70;;;3.30;;
31348;SDS011;17976;48.480;11.946;2022-11-20T19:25:26;6.43;;;3.53;;
31348;SDS011;17976;48.480;11.946;2022-11-20T19:27:52;6.35;;;3.40;;
31348;SDS011;17976;48.480;11.946;2022-11-20T19:30:18;6.88;;;3.97;;
31348;SDS011;17976;48.480;11.946;2022-11-20T19:32:44;6.82;;;4.93;;
31348;SDS011;17976;48.480;11.946;2022-11-20T19:35:10;8.75;;;5.55;;
31348;SDS011;17976;48.480;11.946;2022-11-20T19:37:37;8.45;;;5.53;;
31348;SDS011;17976;48.480;11.946;2022-11-20T19:40:03;14.23;;;6.20;;
31348;SDS011;17976;48.480;11.946;2022-11-20T19:42:29;9.25;;;6.47;;
31348;SDS011;17976;48.480;11.946;2022-11-20T19:44:55;9.82;;;5.50;;
31348;SDS011;17976;48.480;11.946;2022-11-20T19:47:24;13.65;;;6.53;;
31348;SDS011;17976;48.480;11.946;2022-11-20T19:49:50;9.85;;;6.40;;
31348;SDS011;17976;48.480;11.946;2022-11-20T19:52:16;8.52;;;5.55;;
31348;SDS011;17976;48.480;11.946;2022-11-20T19:54:42;10.95;;;5.93;;
31348;SDS011;17976;48.480;11.946;2022-11-20T19:57:08;10.63;;;6.22;;
31348;SDS011;17976;48.480;11.946;2022-11-20T19:59:34;27.85;;;12.32;;
31348;SDS011;17976;48.480;11.946;2022-11-20T20:02:00;18.42;;;7.78;;
31348;SDS011;17976;48.480;11.946;2022-11-20T20:04:27;16.63;;;7.82;;
31348;SDS011;17976;48.480;11.946;2022-11-20T20:06:53;13.10;;;7.68;;
31348;SDS011;17976;48.480;11.946;2022-11-20T20:09:20;13.27;;;7.45;;
31348;SDS011;17976;48.480;11.946;2022-11-20T20:11:47;13.50;;;7.05;;
31348;SDS011;17976;48.480;11.946;2022-11-20T20:14:14;15.85;;;6.38;;
31348;SDS011;17976;48.480;11.946;2022-11-20T20:16:40;13.68;;;7.10;;
31348;SDS011;17976;48.480;11.946;2022-11-20T20:19:06;14.35;;;6.68;;
31348;SDS011;17976;48.480;11.946;2022-11-20T20:21:33;12.98;;;7.95;;
31348;SDS011;17976;48.480;11.946;2022-11-20T20:23:59;11.70;;;6.85;;
31348;SDS011;17976;48.480;11.946;2022-11-20T20:26:26;16.05;;;7.20;;
31348;SDS011;17976;48.480;11.946;2022-11-20T20:28:52;11.82;;;7.18;;
31348;SDS011;17976;48.480;11.946;2022-11-20T20:31:19;14.43;;;7.13;;
31348;SDS011;17976;48.480;11.946;2022-11-20T20:33:46;13.15;;;5.85;;
31348;SDS011;17976;48.480;11.946;2022-11-20T20:36:13;13.63;;;6.93;;
31348;SDS011;17976;48.480;11.946;2022-11-20T20:38:39;14.25;;;6.50;;
31348;SDS011;17976;48.480;11.946;2022-11-20T20:41:06;12.98;;;7.05;;
31348;SDS011;17976;48.480;11.946;2022-11-20T20:43:32;10.82;;;6.47;;
31348;SDS011;17976;48.480;11.946;2022-11-20T20:46:17;11.00;;;6.25;;
31348;SDS011;17976;48.480;11.946;2022-11-20T20:48:43;16.40;;;7.18;;
31348;SDS011;17976;48.480;11.946;2022-11-20T20:51:09;11.85;;;7.07;;
31348;SDS011;17976;48.480;11.946;2022-11-20T20:53:35;11.63;;;6.85;;
31348;SDS011;17976;48.480;11.946;2022-11-20T20:56:01;11.63;;;6.10;;
31348;SDS011;17976;48.480;11.946;2022-11-20T20:58:28;10.57;;;5.43;;
